createdAt,value
2023-03-10T00:02:07.544Z,6.25
2023-03-10T00:07:09.548Z,6.06
2023-03-10T00:12:11.628Z,6.09
2023-03-10T00:17:13.184Z,6.15
2023-03-10T00:22:14.724Z,6.09
2023-03-10T00:27:16.316Z,6.00
2023-03-10T00:32:18.322Z,6.24
2023-03-10T00:37:19.915Z,6.52
2023-03-10T00:42:23.420Z,6.60
2023-03-10T00:47:24.966Z,6.85
2023-03-10T00:52:26.552Z,7.12
2023-03-10T00:57:28.467Z,7.25
2023-03-10T01:02:30.348Z,7.24
2023-03-10T01:07:32.885Z,7.22
2023-03-10T01:12:34.511Z,7.31
2023-03-10T01:17:36.905Z,7.39
2023-03-10T01:22:38.481Z,7.51
2023-03-10T01:27:40.288Z,7.68
2023-03-10T01:32:42.072Z,7.87
2023-03-10T01:37:44.594Z,7.83
2023-03-10T01:42:46.485Z,7.97
2023-03-10T01:47:48.073Z,8.03
2023-03-10T01:52:56.653Z,8.05
2023-03-10T01:57:58.831Z,8.09
2023-03-10T02:03:19.344Z,8.14
2023-03-10T02:08:23.016Z,8.19
2023-03-10T02:13:25.902Z,8.03
2023-03-10T02:18:30.520Z,8.15
2023-03-10T02:23:58.714Z,8.23
2023-03-10T02:29:07.411Z,8.21
2023-03-10T02:34:09.271Z,8.03
2023-03-10T02:39:10.998Z,8.15
2023-03-10T02:44:16.747Z,8.27
2023-03-10T02:49:21.788Z,8.34
2023-03-10T02:54:23.508Z,8.47
2023-03-10T02:59:25.255Z,8.49
2023-03-10T03:04:28.953Z,8.56
2023-03-10T03:09:30.721Z,8.59
2023-03-10T03:14:33.350Z,8.54
2023-03-10T03:19:36.329Z,8.49
2023-03-10T03:24:37.979Z,8.45
2023-03-10T03:29:39.802Z,8.50
2023-03-10T03:34:41.698Z,8.37
2023-03-10T03:39:44.256Z,8.52
2023-03-10T03:44:46.086Z,8.52
2023-03-10T03:49:48.454Z,8.54
2023-03-10T03:54:50.495Z,8.70
2023-03-10T03:59:52.718Z,8.69
2023-03-10T04:04:54.859Z,8.58
2023-03-10T04:09:57.867Z,8.62
2023-03-10T04:15:00.027Z,8.68
2023-03-10T04:20:07.431Z,8.75
2023-03-10T04:25:11.605Z,8.82
2023-03-10T04:30:14.137Z,8.78
2023-03-10T04:35:19.526Z,8.73
2023-03-10T04:40:21.903Z,8.58
2023-03-10T04:45:23.924Z,8.51
2023-03-10T04:50:27.886Z,8.55
2023-03-10T04:55:30.575Z,8.67
2023-03-10T05:00:33.910Z,8.70
2023-03-10T05:05:37.611Z,8.75
2023-03-10T05:10:42.387Z,8.73
2023-03-10T05:15:44.248Z,8.81
2023-03-10T05:20:45.932Z,8.82
2023-03-10T05:25:48.052Z,8.84
2023-03-10T05:30:50.851Z,8.85
2023-03-10T05:35:52.834Z,8.86
2023-03-10T05:40:54.604Z,8.88
2023-03-10T05:45:58.582Z,8.85
2023-03-10T05:51:07.919Z,8.82
2023-03-10T05:56:12.400Z,8.81
2023-03-10T06:01:14.481Z,8.78
2023-03-10T06:06:16.137Z,8.78
2023-03-10T06:11:18.592Z,8.80
2023-03-10T06:16:20.414Z,8.83
2023-03-10T06:21:23.163Z,8.85
2023-03-10T06:26:24.806Z,8.86
2023-03-10T06:31:27.042Z,8.87
2023-03-10T06:36:31.712Z,8.89
2023-03-10T06:41:36.625Z,8.93
2023-03-10T06:46:38.935Z,9.00
2023-03-10T06:51:40.630Z,9.03
2023-03-10T06:56:42.261Z,9.08
2023-03-10T07:01:43.957Z,9.11
2023-03-10T07:06:45.654Z,9.15
2023-03-10T07:11:47.256Z,9.11
2023-03-10T07:16:48.934Z,9.13
2023-03-10T07:21:50.612Z,9.28
2023-03-10T07:26:52.223Z,9.43
2023-03-10T07:31:53.868Z,9.42
2023-03-10T07:36:55.478Z,9.30
2023-03-10T07:41:57.137Z,9.18
2023-03-10T07:46:58.882Z,9.11
2023-03-10T07:52:00.554Z,9.30
2023-03-10T07:57:02.308Z,9.95
2023-03-10T08:02:04.300Z,10.04
2023-03-10T08:07:06.024Z,10.38
2023-03-10T08:12:08.335Z,10.44
2023-03-10T08:17:10.037Z,10.51
2023-03-10T08:22:11.714Z,10.44
2023-03-10T08:27:13.373Z,10.25
2023-03-10T08:32:15.257Z,10.25
2023-03-10T08:37:16.948Z,10.15
2023-03-10T08:42:18.607Z,10.05
2023-03-10T08:47:20.293Z,9.88
2023-03-10T08:52:21.993Z,10.01
2023-03-10T08:57:23.874Z,10.00
2023-03-10T09:02:26.646Z,10.20
2023-03-10T09:07:28.484Z,10.12
2023-03-10T09:12:35.015Z,10.13
2023-03-10T09:17:40.695Z,10.65
2023-03-10T09:22:42.895Z,10.88
2023-03-10T09:27:46.649Z,11.05
2023-03-10T09:32:48.911Z,10.88
2023-03-10T09:37:50.532Z,10.85
2023-03-10T09:43:03.730Z,10.84
2023-03-10T09:48:26.605Z,10.91
2023-03-10T09:53:48.619Z,10.77
2023-03-10T09:58:56.561Z,10.98
2023-03-10T10:04:05.562Z,11.01
2023-03-10T10:09:17.589Z,11.05
2023-03-10T10:14:28.537Z,11.18
2023-03-10T10:19:33.753Z,11.22
2023-03-10T10:24:36.632Z,11.42
2023-03-10T10:29:38.764Z,11.31
2023-03-10T10:34:45.928Z,11.38
2023-03-10T10:39:49.766Z,11.37
2023-03-10T10:44:54.699Z,11.44
2023-03-10T10:50:23.049Z,11.54
2023-03-10T10:55:34.839Z,12.07
2023-03-10T11:00:38.351Z,12.23
2023-03-10T11:05:40.737Z,12.52
2023-03-10T11:10:42.652Z,12.63
2023-03-10T11:16:12.931Z,12.72
2023-03-10T11:21:22.391Z,13.38
2023-03-10T11:26:45.367Z,12.37
2023-03-10T11:32:00.788Z,14.11
2023-03-10T11:37:15.204Z,14.01
2023-03-10T11:42:25.188Z,12.80
2023-03-10T11:48:06.194Z,12.86
2023-03-10T11:53:21.878Z,14.19
2023-03-10T11:58:45.739Z,16.23
2023-03-10T12:04:08.022Z,16.14
2023-03-10T12:09:18.318Z,16.99
2023-03-10T12:14:20.345Z,17.95
2023-03-10T12:19:22.084Z,16.89
2023-03-10T12:24:47.066Z,16.66
2023-03-10T12:29:48.972Z,16.56
2023-03-10T12:35:32.918Z,15.29
2023-03-10T12:40:48.895Z,15.31
2023-03-10T12:45:50.950Z,14.64
2023-03-10T12:51:01.559Z,16.61
2023-03-10T12:56:12.248Z,16.31
2023-03-10T13:01:19.700Z,13.92
2023-03-10T13:06:33.506Z,13.16
2023-03-10T13:11:42.877Z,12.63
2023-03-10T13:16:57.921Z,11.88
2023-03-10T13:22:00.718Z,8.58
2023-03-10T13:27:19.581Z,6.95
2023-03-10T13:32:21.333Z,6.72
2023-03-10T13:37:24.225Z,6.71
2023-03-10T13:42:42.818Z,6.80
2023-03-10T13:47:45.501Z,6.88
2023-03-10T13:52:59.572Z,7.11
2023-03-10T13:58:02.097Z,7.45
2023-03-10T14:03:07.497Z,8.37
2023-03-10T14:08:23.650Z,9.36
2023-03-10T14:13:45.093Z,11.24
2023-03-10T14:18:48.065Z,12.73
2023-03-10T14:23:49.711Z,11.38
2023-03-10T14:28:51.331Z,11.10
2023-03-10T14:33:53.013Z,10.32
2023-03-10T14:38:57.621Z,10.12
2023-03-10T14:44:01.224Z,9.99
2023-03-10T14:49:16.548Z,9.91
2023-03-10T14:54:23.858Z,9.85
2023-03-10T14:59:28.061Z,9.47
2023-03-10T15:04:29.757Z,9.20
2023-03-10T15:09:31.386Z,9.08
2023-03-10T15:14:33.234Z,8.98
2023-03-10T15:19:34.895Z,8.92
2023-03-10T15:24:36.664Z,9.11
2023-03-10T15:29:38.393Z,9.66
2023-03-10T15:34:40.066Z,10.03
2023-03-10T15:39:41.722Z,10.07
2023-03-10T15:44:43.506Z,9.65
2023-03-10T15:49:45.229Z,9.19
2023-03-10T15:54:46.859Z,8.91
2023-03-10T15:59:48.658Z,8.63
2023-03-10T16:04:50.413Z,8.51
2023-03-10T16:09:52.191Z,8.57
2023-03-10T16:14:55.418Z,8.51
2023-03-10T16:19:57.147Z,8.49
2023-03-10T16:24:59.149Z,8.46
2023-03-10T16:30:01.278Z,8.15
2023-03-10T16:35:03.343Z,7.95
2023-03-10T16:40:05.571Z,7.79
2023-03-10T16:45:07.782Z,7.64
2023-03-10T16:50:12.586Z,7.54
2023-03-10T16:55:20.003Z,7.45
2023-03-10T17:00:22.901Z,7.32
2023-03-10T17:05:24.685Z,7.23
2023-03-10T17:10:26.853Z,7.22
2023-03-10T17:15:29.460Z,7.31
2023-03-10T17:20:31.069Z,7.39
2023-03-10T17:25:35.137Z,7.43
2023-03-10T17:30:40.971Z,7.42
2023-03-10T17:35:42.962Z,7.36
2023-03-10T17:40:44.854Z,7.36
2023-03-10T17:45:55.834Z,7.40
2023-03-10T17:50:57.582Z,7.42
2023-03-10T17:56:02.890Z,7.48
2023-03-10T18:01:15.051Z,7.46
2023-03-10T18:06:22.710Z,7.50
2023-03-10T18:11:24.674Z,7.50
2023-03-10T18:16:29.724Z,7.53
2023-03-10T18:21:31.799Z,7.64
2023-03-10T18:26:33.810Z,7.60
2023-03-10T18:31:35.836Z,7.39
2023-03-10T18:36:37.545Z,7.16
2023-03-10T18:41:39.207Z,6.92
2023-03-10T18:46:40.862Z,6.68
2023-03-10T18:51:42.553Z,6.54
2023-03-10T18:56:44.345Z,6.43
2023-03-10T19:01:46.122Z,6.41
2023-03-10T19:06:47.791Z,6.42
2023-03-10T19:11:50.792Z,6.40
2023-03-10T19:16:52.482Z,6.42
2023-03-10T19:21:56.032Z,6.40
2023-03-10T19:27:00.083Z,6.36
2023-03-10T19:32:02.958Z,6.29
2023-03-10T19:37:04.690Z,6.26
2023-03-10T19:42:06.518Z,6.25
2023-03-10T19:47:08.213Z,6.06
2023-03-10T19:52:09.884Z,5.83
2023-03-10T19:57:13.273Z,5.54
2023-03-10T20:02:16.985Z,5.29
2023-03-10T20:07:18.590Z,5.13
2023-03-10T20:12:20.271Z,5.01
2023-03-10T20:17:22.426Z,4.93
2023-03-10T20:22:24.344Z,4.87
2023-03-10T20:27:27.092Z,4.75
2023-03-10T20:32:28.794Z,4.69
2023-03-10T20:37:30.520Z,4.63
2023-03-10T20:42:33.659Z,4.61
2023-03-10T20:47:35.508Z,4.59
2023-03-10T20:52:38.974Z,4.55
2023-03-10T20:57:40.624Z,4.53
2023-03-10T21:02:46.690Z,4.56
2023-03-10T21:07:48.303Z,4.58
2023-03-10T21:12:50.098Z,4.56
2023-03-10T21:17:51.908Z,4.53
2023-03-10T21:22:53.482Z,4.48
2023-03-10T21:27:59.656Z,4.42
2023-03-10T21:33:01.340Z,4.40
2023-03-10T21:38:03.024Z,4.32
2023-03-10T21:43:04.732Z,4.25
2023-03-10T21:48:06.488Z,4.08
2023-03-10T21:53:08.290Z,3.98
2023-03-10T21:58:09.962Z,3.89
2023-03-10T22:03:11.658Z,3.81
2023-03-10T22:08:13.345Z,3.75
2023-03-10T22:13:15.014Z,3.71
2023-03-10T22:18:16.680Z,3.69
2023-03-10T22:23:18.351Z,3.63
2023-03-10T22:28:22.782Z,3.57
2023-03-10T22:33:24.397Z,3.56
2023-03-10T22:38:26.003Z,3.55
2023-03-10T22:43:28.067Z,3.46
2023-03-10T22:48:29.691Z,3.16
2023-03-10T22:53:31.290Z,2.87
2023-03-10T22:58:33.181Z,1.57
2023-03-10T23:03:35.322Z,0.89
2023-03-10T23:08:37.563Z,0.59
2023-03-10T23:13:39.748Z,0.48
2023-03-10T23:18:41.376Z,0.29
2023-03-10T23:23:47.926Z,0.14
2023-03-10T23:28:49.654Z,-0.08
2023-03-10T23:33:51.543Z,-0.18
2023-03-10T23:38:53.186Z,-0.26
2023-03-10T23:43:55.091Z,-0.34
2023-03-10T23:48:56.758Z,-0.37
2023-03-10T23:53:58.373Z,-0.37
2023-03-10T23:59:00.105Z,-0.40
